createdAt,value
2023-05-06T00:00:04.788Z,97.06
2023-05-06T00:01:04.764Z,97.06
2023-05-06T00:02:04.743Z,96.96
2023-05-06T00:03:04.855Z,96.96
2023-05-06T00:04:04.911Z,96.96
2023-05-06T00:05:04.730Z,96.86
2023-05-06T00:06:04.659Z,96.86
2023-05-06T00:07:04.683Z,96.75
2023-05-06T00:08:04.645Z,96.66
2023-05-06T00:09:04.665Z,96.55
2023-05-06T00:10:04.617Z,96.55
2023-05-06T00:11:04.642Z,96.34
2023-05-06T00:12:04.577Z,96.25
2023-05-06T00:13:04.665Z,96.14
2023-05-06T00:14:04.596Z,96.14
2023-05-06T00:15:04.600Z,96.04
2023-05-06T00:16:04.608Z,96.04
2023-05-06T00:17:04.573Z,95.94
2023-05-06T00:18:04.630Z,95.94
2023-05-06T00:19:04.532Z,95.84
2023-05-06T00:20:04.539Z,95.79
2023-05-06T00:21:04.505Z,95.69
2023-05-06T00:22:04.508Z,95.69
2023-05-06T00:23:04.475Z,95.69
2023-05-06T00:24:04.442Z,95.59
2023-05-06T00:25:04.474Z,95.59
2023-05-06T00:26:04.471Z,95.59
2023-05-06T00:27:04.428Z,95.59
2023-05-06T00:28:04.395Z,95.48
2023-05-06T00:29:04.415Z,95.48
2023-05-06T00:30:04.403Z,95.38
2023-05-06T00:31:04.409Z,95.38
2023-05-06T00:32:04.457Z,95.28
2023-05-06T00:33:04.409Z,95.28
2023-05-06T00:34:04.346Z,95.18
2023-05-06T00:35:04.394Z,95.18
2023-05-06T00:36:04.349Z,95.18
2023-05-06T00:37:04.341Z,95.18
2023-05-06T00:38:04.295Z,95.28
2023-05-06T00:39:04.327Z,95.28
2023-05-06T00:40:04.301Z,95.38
2023-05-06T00:41:04.292Z,95.38
2023-05-06T00:42:04.413Z,95.38
2023-05-06T00:43:04.396Z,95.38
2023-05-06T00:44:04.251Z,95.38
2023-05-06T00:45:04.223Z,95.38
2023-05-06T00:46:04.292Z,95.38
2023-05-06T00:47:04.218Z,95.38
2023-05-06T00:48:04.257Z,95.38
2023-05-06T00:49:04.234Z,95.38
2023-05-06T00:50:04.175Z,95.48
2023-05-06T00:51:04.184Z,95.48
2023-05-06T00:52:04.134Z,95.48
2023-05-06T00:53:04.186Z,95.59
2023-05-06T00:54:04.111Z,95.73
2023-05-06T00:55:04.119Z,95.94
2023-05-06T00:56:04.096Z,96.04
2023-05-06T00:57:04.179Z,96.14
2023-05-06T00:58:04.122Z,96.34
2023-05-06T00:59:04.085Z,96.55
2023-05-06T01:00:04.066Z,96.66
2023-05-06T01:01:04.062Z,96.86
2023-05-06T01:02:04.117Z,96.86
2023-05-06T01:03:04.212Z,96.96
2023-05-06T01:04:04.036Z,97.06
2023-05-06T01:05:04.103Z,97.16
2023-05-06T01:06:03.983Z,97.27
2023-05-06T01:07:04.008Z,97.37
2023-05-06T01:08:03.984Z,97.47
2023-05-06T01:09:03.979Z,97.47
2023-05-06T01:10:03.961Z,97.57
2023-05-06T01:11:03.938Z,97.57
2023-05-06T01:12:03.920Z,97.63
2023-05-06T01:13:03.978Z,97.74
2023-05-06T01:14:03.898Z,97.74
2023-05-06T01:15:03.997Z,97.83
2023-05-06T01:16:03.865Z,97.94
2023-05-06T01:17:03.989Z,97.94
2023-05-06T01:18:03.898Z,97.94
2023-05-06T01:19:03.861Z,98.04
2023-05-06T01:20:03.829Z,97.94
2023-05-06T01:21:03.869Z,97.94
2023-05-06T01:22:03.795Z,97.94
2023-05-06T01:23:03.811Z,97.88
2023-05-06T01:24:03.756Z,97.88
2023-05-06T01:25:03.815Z,97.88
2023-05-06T01:26:03.752Z,97.88
2023-05-06T01:27:03.771Z,97.88
2023-05-06T01:28:03.733Z,97.88
2023-05-06T01:29:03.739Z,97.98
2023-05-06T01:30:03.767Z,97.98
2023-05-06T01:31:03.805Z,97.98
2023-05-06T01:32:03.690Z,98.04
2023-05-06T01:33:03.813Z,98.14
2023-05-06T01:34:03.688Z,98.14
2023-05-06T01:35:03.667Z,98.14
2023-05-06T01:36:03.677Z,98.24
2023-05-06T01:37:03.651Z,98.24
2023-05-06T01:38:03.636Z,98.24
2023-05-06T01:39:03.664Z,98.24
2023-05-06T01:40:03.659Z,98.35
2023-05-06T01:41:03.618Z,98.35
2023-05-06T01:42:03.580Z,98.35
2023-05-06T01:43:03.606Z,98.24
2023-05-06T01:44:03.570Z,98.24
2023-05-06T01:45:03.540Z,98.24
2023-05-06T01:46:03.578Z,98.29
2023-05-06T01:47:03.543Z,98.24
2023-05-06T01:48:03.623Z,98.29
2023-05-06T01:49:03.528Z,98.19
2023-05-06T01:50:03.488Z,98.08
2023-05-06T01:51:03.492Z,98.08
2023-05-06T01:52:03.523Z,98.08
2023-05-06T01:53:03.650Z,97.98
2023-05-06T01:54:03.454Z,97.88
2023-05-06T01:55:03.491Z,97.98
2023-05-06T01:56:03.418Z,97.88
2023-05-06T01:57:03.423Z,97.72
2023-05-06T01:58:03.390Z,97.72
2023-05-06T01:59:03.414Z,97.77
2023-05-06T02:00:03.367Z,97.77
2023-05-06T02:01:03.388Z,97.77
2023-05-06T02:02:03.367Z,97.87
2023-05-06T02:03:03.568Z,97.97
2023-05-06T02:04:03.384Z,97.92
2023-05-06T02:05:03.346Z,97.92
2023-05-06T02:06:03.288Z,98.03
2023-05-06T02:07:03.317Z,98.03
2023-05-06T02:08:03.288Z,98.13
2023-05-06T02:09:03.302Z,98.13
2023-05-06T02:10:03.237Z,98.13
2023-05-06T02:11:03.268Z,98.24
2023-05-06T02:12:03.312Z,98.13
2023-05-06T02:13:03.298Z,98.03
2023-05-06T02:14:03.251Z,98.03
2023-05-06T02:15:03.235Z,97.92
2023-05-06T02:16:03.302Z,97.82
2023-05-06T02:17:03.195Z,97.72
2023-05-06T02:18:03.253Z,97.77
2023-05-06T02:19:03.189Z,97.77
2023-05-06T02:20:03.136Z,97.66
2023-05-06T02:21:03.204Z,97.56
2023-05-06T02:22:03.133Z,97.56
2023-05-06T02:23:03.138Z,97.56
2023-05-06T02:24:03.095Z,97.46
2023-05-06T02:25:03.121Z,97.46
2023-05-06T02:26:03.062Z,97.46
2023-05-06T02:27:03.131Z,97.46
2023-05-06T02:28:03.148Z,97.36
2023-05-06T02:29:03.083Z,97.36
2023-05-06T02:30:03.051Z,97.25
2023-05-06T02:31:03.085Z,97.25
2023-05-06T02:32:02.986Z,97.25
2023-05-06T02:33:03.065Z,97.15
2023-05-06T02:34:02.980Z,97.05
2023-05-06T02:35:03.012Z,97.05
2023-05-06T02:36:02.956Z,96.95
2023-05-06T02:37:02.983Z,97.05
2023-05-06T02:38:02.933Z,97.15
2023-05-06T02:39:02.930Z,97.15
2023-05-06T02:40:02.963Z,97.25
2023-05-06T02:41:02.912Z,97.25
2023-05-06T02:42:02.887Z,97.25
2023-05-06T02:43:02.997Z,97.25
2023-05-06T02:44:02.876Z,97.25
2023-05-06T02:45:02.886Z,97.36
2023-05-06T02:46:03.201Z,97.36
2023-05-06T02:47:02.875Z,97.46
2023-05-06T02:48:02.848Z,97.46
2023-05-06T02:49:02.828Z,97.46
2023-05-06T02:50:02.776Z,97.46
2023-05-06T02:51:02.822Z,97.46
2023-05-06T02:52:02.773Z,97.46
2023-05-06T02:53:02.800Z,97.56
2023-05-06T02:54:02.759Z,97.56
2023-05-06T02:55:02.768Z,97.56
2023-05-06T02:56:02.708Z,97.56
2023-05-06T02:57:02.721Z,97.56
2023-05-06T02:58:02.743Z,97.66
2023-05-06T02:59:02.705Z,97.62
2023-05-06T03:00:02.702Z,97.62
2023-05-06T03:01:02.678Z,97.62
2023-05-06T03:02:02.639Z,97.62
2023-05-06T03:03:02.774Z,97.56
2023-05-06T03:04:02.662Z,97.56
2023-05-06T03:05:02.620Z,97.46
2023-05-06T03:06:02.617Z,97.46
2023-05-06T03:07:02.608Z,97.36
2023-05-06T03:08:02.614Z,97.36
2023-05-06T03:09:02.580Z,97.36
2023-05-06T03:10:02.557Z,97.46
2023-05-06T03:11:02.548Z,97.36
2023-05-06T03:12:02.548Z,97.36
2023-05-06T03:13:02.568Z,97.15
2023-05-06T03:14:02.510Z,97.05
2023-05-06T03:15:02.515Z,96.95
2023-05-06T03:16:02.528Z,96.99
2023-05-06T03:17:02.474Z,97.09
2023-05-06T03:18:02.552Z,97.05
2023-05-06T03:19:02.469Z,97.15
2023-05-06T03:20:02.494Z,97.25
2023-05-06T03:21:02.481Z,97.25
2023-05-06T03:22:02.443Z,97.36
2023-05-06T03:23:02.443Z,97.36
2023-05-06T03:24:02.493Z,97.25
2023-05-06T03:25:02.381Z,97.20
2023-05-06T03:26:02.402Z,97.20
2023-05-06T03:27:02.465Z,97.30
2023-05-06T03:28:02.677Z,97.40
2023-05-06T03:29:02.352Z,97.40
2023-05-06T03:30:02.352Z,97.30
2023-05-06T03:31:02.332Z,97.30
2023-05-06T03:32:02.396Z,97.30
2023-05-06T03:33:02.319Z,97.30
2023-05-06T03:34:02.312Z,97.20
2023-05-06T03:35:02.290Z,97.20
2023-05-06T03:36:02.266Z,97.09
2023-05-06T03:37:02.410Z,96.99
2023-05-06T03:38:02.256Z,96.94
2023-05-06T03:39:02.229Z,96.94
2023-05-06T03:40:02.251Z,96.94
2023-05-06T03:41:02.367Z,96.94
2023-05-06T03:42:02.223Z,96.94
2023-05-06T03:43:02.178Z,97.04
2023-05-06T03:44:02.751Z,96.94
2023-05-06T03:45:02.161Z,96.94
2023-05-06T03:46:02.227Z,96.94
2023-05-06T03:47:02.714Z,96.94
2023-05-06T03:48:02.241Z,96.94
2023-05-06T03:49:02.114Z,96.94
2023-05-06T03:50:02.144Z,96.94
2023-05-06T03:51:02.140Z,96.83
2023-05-06T03:52:02.120Z,96.83
2023-05-06T03:53:02.051Z,96.83
2023-05-06T03:54:02.086Z,96.83
2023-05-06T03:55:02.135Z,96.83
2023-05-06T03:56:02.118Z,96.83
2023-05-06T03:57:02.005Z,96.83
2023-05-06T03:58:02.067Z,96.83
2023-05-06T03:59:01.985Z,96.73
2023-05-06T04:00:01.999Z,96.73
2023-05-06T04:01:01.961Z,96.58
2023-05-06T04:02:02.011Z,96.48
2023-05-06T04:03:01.971Z,96.32
2023-05-06T04:04:02.140Z,96.22
2023-05-06T04:05:01.934Z,96.12
2023-05-06T04:06:01.950Z,96.12
2023-05-06T04:07:01.901Z,96.22
2023-05-06T04:08:02.092Z,96.32
2023-05-06T04:09:01.893Z,96.32
2023-05-06T04:10:01.876Z,96.32
2023-05-06T04:11:01.842Z,96.32
2023-05-06T04:12:01.927Z,96.32
2023-05-06T04:13:01.871Z,96.22
2023-05-06T04:14:01.862Z,96.12
2023-05-06T04:15:01.808Z,96.01
2023-05-06T04:16:01.948Z,95.91
2023-05-06T04:17:02.094Z,95.91
2023-05-06T04:18:01.859Z,95.81
2023-05-06T04:19:02.532Z,95.91
2023-05-06T04:20:01.772Z,95.87
2023-05-06T04:21:01.787Z,95.76
2023-05-06T04:22:01.759Z,95.76
2023-05-06T04:23:01.827Z,95.76
2023-05-06T04:24:01.751Z,95.66
2023-05-06T04:25:01.694Z,95.66
2023-05-06T04:26:01.702Z,95.66
2023-05-06T04:27:01.715Z,95.66
2023-05-06T04:28:02.167Z,95.66
2023-05-06T04:29:01.645Z,95.66
2023-05-06T04:30:01.699Z,95.56
2023-05-06T04:31:01.613Z,95.56
2023-05-06T04:32:01.750Z,95.56
2023-05-06T04:33:01.611Z,95.66
2023-05-06T04:34:01.675Z,95.66
2023-05-06T04:35:01.572Z,95.66
2023-05-06T04:36:01.681Z,95.66
2023-05-06T04:37:01.535Z,95.66
2023-05-06T04:38:03.675Z,95.66
2023-05-06T04:39:01.587Z,95.76
2023-05-06T04:40:01.548Z,95.76
2023-05-06T04:41:01.611Z,95.87
2023-05-06T04:42:01.590Z,95.76
2023-05-06T04:43:01.486Z,95.56
2023-05-06T04:44:01.546Z,95.56
2023-05-06T04:45:01.515Z,95.56
2023-05-06T04:46:01.569Z,95.56
2023-05-06T04:47:01.489Z,95.56
2023-05-06T04:48:01.540Z,95.56
2023-05-06T04:49:01.450Z,95.56
2023-05-06T04:50:01.454Z,95.66
2023-05-06T04:51:01.426Z,95.66
2023-05-06T04:52:01.401Z,95.76
2023-05-06T04:53:01.438Z,95.76
2023-05-06T04:54:01.404Z,95.72
2023-05-06T04:55:01.437Z,95.82
2023-05-06T04:56:01.377Z,95.82
2023-05-06T04:57:01.359Z,95.82
2023-05-06T04:58:01.389Z,95.82
2023-05-06T04:59:01.283Z,95.72
2023-05-06T05:00:01.353Z,95.62
2023-05-06T05:01:01.304Z,95.62
2023-05-06T05:02:01.718Z,95.51
2023-05-06T05:03:01.464Z,95.47
2023-05-06T05:04:01.266Z,95.37
2023-05-06T05:05:01.249Z,95.26
2023-05-06T05:06:01.262Z,95.17
2023-05-06T05:07:01.212Z,94.96
2023-05-06T05:08:01.219Z,94.96
2023-05-06T05:09:01.210Z,94.85
2023-05-06T05:10:01.467Z,94.75
2023-05-06T05:11:01.168Z,94.65
2023-05-06T05:12:01.167Z,94.51
2023-05-06T05:13:01.238Z,94.20
2023-05-06T05:14:02.319Z,93.79
2023-05-06T05:15:01.119Z,93.38
2023-05-06T05:16:01.149Z,93.07
2023-05-06T05:17:01.107Z,92.97
2023-05-06T05:18:01.211Z,92.66
2023-05-06T05:19:03.538Z,92.36
2023-05-06T05:20:01.084Z,92.15
2023-05-06T05:21:01.081Z,91.85
2023-05-06T05:22:01.040Z,91.64
2023-05-06T05:23:01.021Z,91.44
2023-05-06T05:24:01.059Z,90.88
2023-05-06T05:25:01.008Z,90.47
2023-05-06T05:26:01.004Z,90.00
2023-05-06T05:27:01.003Z,90.00
2023-05-06T05:28:00.979Z,90.00
2023-05-06T05:29:00.995Z,90.31
2023-05-06T05:30:01.016Z,90.52
2023-05-06T05:31:00.952Z,90.72
2023-05-06T05:32:00.988Z,90.92
2023-05-06T05:33:01.025Z,90.88
2023-05-06T05:34:00.897Z,90.88
2023-05-06T05:35:00.919Z,90.78
2023-05-06T05:36:00.877Z,90.78
2023-05-06T05:37:00.875Z,90.88
2023-05-06T05:38:00.898Z,90.84
2023-05-06T05:39:00.845Z,90.43
2023-05-06T05:40:00.850Z,89.65
2023-05-06T05:41:00.796Z,89.45
2023-05-06T05:42:00.827Z,89.76
2023-05-06T05:43:00.809Z,89.92
2023-05-06T05:44:00.815Z,90.12
2023-05-06T05:45:00.777Z,90.23
2023-05-06T05:46:00.842Z,90.12
2023-05-06T05:47:00.732Z,89.41
2023-05-06T05:48:00.956Z,89.00
2023-05-06T05:49:00.736Z,89.00
2023-05-06T05:50:00.753Z,89.31
2023-05-06T05:51:00.800Z,89.51
2023-05-06T05:52:00.778Z,89.82
2023-05-06T05:53:00.680Z,89.51
2023-05-06T05:54:00.691Z,89.37
2023-05-06T05:55:00.654Z,89.06
2023-05-06T05:56:00.708Z,88.96
2023-05-06T05:57:00.636Z,88.85
2023-05-06T05:58:00.712Z,88.92
2023-05-06T05:59:00.602Z,88.82
2023-05-06T06:00:00.617Z,88.61
2023-05-06T06:01:00.622Z,88.41
2023-05-06T06:02:00.637Z,88.06
2023-05-06T06:03:00.731Z,87.76
2023-05-06T06:04:00.783Z,87.45
2023-05-06T06:05:00.630Z,87.04
2023-05-06T06:06:00.565Z,87.14
2023-05-06T06:07:00.689Z,87.04
2023-05-06T06:08:02.924Z,86.73
2023-05-06T06:09:00.588Z,86.02
2023-05-06T06:10:00.545Z,86.02
2023-05-06T06:11:00.522Z,86.08
2023-05-06T06:12:00.613Z,86.22
2023-05-06T06:13:00.503Z,86.53
2023-05-06T06:14:00.549Z,86.73
2023-05-06T06:15:00.459Z,87.18
2023-05-06T06:16:00.543Z,87.65
2023-05-06T06:17:00.539Z,87.85
2023-05-06T06:18:00.517Z,87.55
2023-05-06T06:19:00.423Z,87.00
2023-05-06T06:20:00.513Z,86.80
2023-05-06T06:21:00.394Z,86.86
2023-05-06T06:22:00.453Z,87.06
2023-05-06T06:23:00.345Z,87.06
2023-05-06T06:24:00.381Z,86.71
2023-05-06T06:25:00.326Z,86.30
2023-05-06T06:26:00.332Z,86.00
2023-05-06T06:27:00.316Z,85.75
2023-05-06T06:28:00.302Z,85.35
2023-05-06T06:29:00.433Z,85.25
2023-05-06T06:30:00.675Z,84.53
2023-05-06T06:31:01.115Z,84.33
2023-05-06T06:32:00.508Z,84.53
2023-05-06T06:33:00.368Z,84.23
2023-05-06T06:34:00.233Z,84.39
2023-05-06T06:35:00.217Z,84.19
2023-05-06T06:36:00.265Z,83.78
2023-05-06T06:37:00.211Z,83.98
2023-05-06T06:38:00.354Z,83.84
2023-05-06T06:39:00.163Z,83.54
2023-05-06T06:40:00.194Z,83.44
2023-05-06T06:41:00.155Z,83.34
2023-05-06T06:42:00.159Z,83.09
2023-05-06T06:43:00.163Z,82.89
2023-05-06T06:44:00.156Z,82.38
2023-05-06T06:45:00.190Z,81.98
2023-05-06T06:46:00.159Z,82.59
2023-05-06T06:47:00.093Z,82.18
2023-05-06T06:48:00.171Z,82.54
2023-05-06T06:49:00.162Z,82.38
2023-05-06T06:50:00.069Z,81.98
2023-05-06T06:51:00.970Z,81.98
2023-05-06T06:52:00.268Z,82.48
2023-05-06T06:53:00.036Z,82.42
2023-05-06T06:54:00.028Z,82.93
2023-05-06T06:55:00.003Z,83.54
2023-05-06T06:55:59.998Z,84.25
2023-05-06T06:57:00.184Z,84.21
2023-05-06T06:57:59.967Z,83.81
2023-05-06T06:58:59.945Z,83.67
2023-05-06T06:59:59.948Z,83.46
2023-05-06T07:00:59.976Z,83.12
2023-05-06T07:01:59.927Z,82.40
2023-05-06T07:02:59.922Z,81.76
2023-05-06T07:03:59.929Z,81.45
2023-05-06T07:04:59.860Z,81.45
2023-05-06T07:06:00.000Z,80.94
2023-05-06T07:06:59.828Z,80.33
2023-05-06T07:07:59.891Z,80.60
2023-05-06T07:08:59.808Z,79.93
2023-05-06T07:09:59.856Z,80.24
2023-05-06T07:10:59.829Z,79.83
2023-05-06T07:11:59.808Z,80.07
2023-05-06T07:12:59.847Z,80.68
2023-05-06T07:13:59.793Z,80.64
2023-05-06T07:14:59.747Z,80.94
2023-05-06T07:15:59.752Z,80.64
2023-05-06T07:16:59.755Z,80.64
2023-05-06T07:17:59.829Z,80.84
2023-05-06T07:18:59.704Z,81.56
2023-05-06T07:19:59.717Z,81.52
2023-05-06T07:20:59.677Z,80.60
2023-05-06T07:21:59.724Z,80.50
2023-05-06T07:22:59.640Z,80.71
2023-05-06T07:23:59.680Z,81.11
2023-05-06T07:24:59.635Z,80.71
2023-05-06T07:25:59.669Z,80.30
2023-05-06T07:26:59.596Z,80.91
2023-05-06T07:27:59.635Z,81.41
2023-05-06T07:28:59.780Z,81.48
2023-05-06T07:29:59.609Z,81.07
2023-05-06T07:30:59.685Z,81.34
2023-05-06T07:31:59.543Z,80.12
2023-05-06T07:32:59.642Z,79.27
2023-05-06T07:33:59.756Z,80.19
2023-05-06T07:34:59.992Z,79.13
2023-05-06T07:35:59.516Z,77.51
2023-05-06T07:36:59.554Z,77.51
2023-05-06T07:37:59.506Z,77.41
2023-05-06T07:38:59.508Z,78.02
2023-05-06T07:39:59.465Z,78.69
2023-05-06T07:40:59.522Z,78.19
2023-05-06T07:42:00.000Z,77.34
2023-05-06T07:42:59.454Z,77.95
2023-05-06T07:44:00.261Z,77.81
2023-05-06T07:44:59.481Z,76.90
2023-05-06T07:45:59.456Z,76.86
2023-05-06T07:46:59.538Z,75.45
2023-05-06T07:47:59.413Z,75.75
2023-05-06T07:48:59.425Z,75.24
2023-05-06T07:49:59.404Z,76.82
2023-05-06T07:50:59.426Z,76.32
2023-05-06T07:51:59.338Z,75.55
2023-05-06T07:52:59.423Z,75.45
2023-05-06T07:53:59.304Z,76.35
2023-05-06T07:54:59.386Z,75.55
2023-05-06T07:55:59.275Z,75.04
2023-05-06T07:56:59.352Z,75.24
2023-05-06T07:57:59.267Z,75.65
2023-05-06T07:58:59.348Z,75.99
2023-05-06T07:59:59.254Z,75.89
2023-05-06T08:00:59.259Z,75.89
2023-05-06T08:01:59.234Z,75.58
2023-05-06T08:02:59.272Z,76.19
2023-05-06T08:03:59.323Z,74.57
2023-05-06T08:04:59.206Z,74.57
2023-05-06T08:05:59.206Z,73.96
2023-05-06T08:06:59.204Z,74.37
2023-05-06T08:07:59.415Z,75.68
2023-05-06T08:08:59.194Z,74.77
2023-05-06T08:09:59.521Z,73.93
2023-05-06T08:10:59.141Z,73.43
2023-05-06T08:11:59.096Z,73.76
2023-05-06T08:12:59.188Z,74.77
2023-05-06T08:13:59.084Z,74.87
2023-05-06T08:14:59.106Z,74.03
2023-05-06T08:15:59.099Z,73.83
2023-05-06T08:16:59.118Z,73.43
2023-05-06T08:18:04.374Z,73.99
2023-05-06T08:19:00.195Z,73.69
2023-05-06T08:19:59.085Z,73.05
2023-05-06T08:20:59.179Z,71.64
2023-05-06T08:21:59.005Z,71.84
2023-05-06T08:22:59.008Z,71.94
2023-05-06T08:23:58.976Z,71.84
2023-05-06T08:24:59.101Z,71.64
2023-05-06T08:25:58.992Z,71.53
2023-05-06T08:26:58.990Z,72.34
2023-05-06T08:27:58.950Z,72.85
2023-05-06T08:28:58.943Z,72.75
2023-05-06T08:29:58.933Z,73.52
2023-05-06T08:30:58.974Z,73.42
2023-05-06T08:31:58.930Z,71.37
2023-05-06T08:32:58.949Z,71.20
2023-05-06T08:33:58.876Z,71.91
2023-05-06T08:34:58.882Z,72.71
2023-05-06T08:35:58.882Z,72.88
2023-05-06T08:36:58.830Z,72.07
2023-05-06T08:37:58.826Z,71.44
2023-05-06T08:38:58.887Z,71.10
2023-05-06T08:39:59.988Z,71.20
2023-05-06T08:40:58.812Z,70.66
2023-05-06T08:41:58.763Z,70.46
2023-05-06T08:42:58.794Z,68.01
2023-05-06T08:43:58.755Z,66.60
2023-05-06T08:44:58.915Z,66.87
2023-05-06T08:45:59.101Z,67.07
2023-05-06T08:46:58.752Z,65.36
2023-05-06T08:47:58.732Z,65.42
2023-05-06T08:48:58.708Z,63.71
2023-05-06T08:49:58.724Z,63.42
2023-05-06T08:50:58.683Z,63.11
2023-05-06T08:51:58.642Z,64.42
2023-05-06T08:52:58.660Z,65.22
2023-05-06T08:53:58.650Z,64.39
2023-05-06T08:54:58.715Z,61.85
2023-05-06T08:55:58.633Z,61.91
2023-05-06T08:56:58.692Z,60.21
2023-05-06T08:57:58.665Z,60.48
2023-05-06T08:58:58.654Z,59.17
2023-05-06T08:59:58.589Z,59.38
2023-05-06T09:00:58.713Z,60.18
2023-05-06T09:01:58.589Z,59.00
2023-05-06T09:02:58.686Z,60.11
2023-05-06T09:03:58.579Z,60.61
2023-05-06T09:04:58.542Z,61.82
2023-05-06T09:05:58.622Z,60.61
2023-05-06T09:06:58.539Z,61.01
2023-05-06T09:07:58.527Z,61.38
2023-05-06T09:08:58.488Z,59.67
2023-05-06T09:09:58.495Z,58.57
2023-05-06T09:10:58.485Z,58.75
2023-05-06T09:11:58.494Z,58.04
2023-05-06T09:12:58.577Z,58.54
2023-05-06T09:13:58.484Z,58.62
2023-05-06T09:14:58.437Z,58.01
2023-05-06T09:15:58.452Z,57.51
2023-05-06T09:16:58.582Z,56.58
2023-05-06T09:17:58.402Z,57.18
2023-05-06T09:18:58.554Z,56.48
2023-05-06T09:19:58.352Z,57.59
2023-05-06T09:21:00.633Z,57.18
2023-05-06T09:21:58.310Z,57.28
2023-05-06T09:22:58.385Z,57.59
2023-05-06T09:23:58.290Z,56.88
2023-05-06T09:24:58.403Z,56.98
2023-05-06T09:25:58.291Z,55.45
2023-05-06T09:26:58.332Z,54.75
2023-05-06T09:27:58.261Z,53.14
2023-05-06T09:28:58.288Z,54.35
2023-05-06T09:29:58.236Z,52.55
2023-05-06T09:30:58.307Z,53.64
2023-05-06T09:31:58.220Z,54.97
2023-05-06T09:32:58.246Z,55.18
2023-05-06T09:33:58.307Z,55.78
2023-05-06T09:34:58.286Z,54.30
2023-05-06T09:35:58.139Z,55.03
2023-05-06T09:36:58.173Z,56.54
2023-05-06T09:37:58.204Z,55.86
2023-05-06T09:38:58.288Z,54.05
2023-05-06T09:39:58.104Z,51.56
2023-05-06T09:40:58.127Z,53.09
2023-05-06T09:41:58.177Z,53.60
2023-05-06T09:42:58.139Z,54.50
2023-05-06T09:43:58.087Z,54.40
2023-05-06T09:44:59.891Z,54.33
2023-05-06T09:45:58.109Z,54.33
2023-05-06T09:46:58.870Z,55.06
2023-05-06T09:47:58.089Z,52.94
2023-05-06T09:48:58.137Z,52.64
2023-05-06T09:49:58.026Z,53.95
2023-05-06T09:51:00.000Z,53.67
2023-05-06T09:51:58.130Z,54.48
2023-05-06T09:52:58.016Z,55.79
2023-05-06T09:53:57.986Z,55.19
2023-05-06T09:54:58.028Z,55.29
2023-05-06T09:55:57.933Z,56.09
2023-05-06T09:57:00.435Z,55.08
2023-05-06T09:57:57.885Z,56.29
2023-05-06T09:58:57.907Z,56.80
2023-05-06T09:59:57.866Z,57.20
2023-05-06T10:00:57.943Z,56.90
2023-05-06T10:01:57.860Z,57.10
2023-05-06T10:02:58.047Z,58.81
2023-05-06T10:03:57.925Z,59.31
2023-05-06T10:04:58.110Z,58.91
2023-05-06T10:05:57.857Z,58.98
2023-05-06T10:06:57.822Z,58.25
2023-05-06T10:07:57.857Z,58.35
2023-05-06T10:08:57.797Z,58.22
2023-05-06T10:09:57.789Z,57.09
2023-05-06T10:10:57.941Z,56.96
2023-05-06T10:11:58.029Z,55.96
2023-05-06T10:12:58.107Z,56.03
2023-05-06T10:13:57.710Z,55.10
2023-05-06T10:14:57.726Z,54.60
2023-05-06T10:15:57.735Z,54.07
2023-05-06T10:16:57.711Z,52.97
2023-05-06T10:17:57.744Z,53.67
2023-05-06T10:18:57.689Z,54.27
2023-05-06T10:19:57.708Z,53.77
2023-05-06T10:20:57.678Z,53.77
2023-05-06T10:21:57.635Z,53.45
2023-05-06T10:22:57.662Z,53.85
2023-05-06T10:23:57.656Z,53.72
2023-05-06T10:24:57.652Z,52.82
2023-05-06T10:25:57.594Z,51.39
2023-05-06T10:26:57.598Z,53.19
2023-05-06T10:27:57.571Z,51.49
2023-05-06T10:28:57.573Z,53.39
2023-05-06T10:29:57.563Z,52.37
2023-05-06T10:30:58.266Z,50.76
2023-05-06T10:31:57.867Z,51.54
2023-05-06T10:32:57.698Z,50.64
2023-05-06T10:33:57.525Z,49.64
2023-05-06T10:34:57.693Z,51.94
2023-05-06T10:35:57.460Z,50.62
2023-05-06T10:36:57.755Z,49.52
2023-05-06T10:37:57.467Z,48.92
2023-05-06T10:38:57.469Z,48.92
2023-05-06T10:39:57.411Z,48.69
2023-05-06T10:40:57.444Z,49.47
2023-05-06T10:41:57.443Z,48.55
2023-05-06T10:42:57.416Z,47.95
2023-05-06T10:43:57.542Z,46.15
2023-05-06T10:44:57.414Z,45.75
2023-05-06T10:45:57.376Z,46.55
2023-05-06T10:46:57.367Z,46.83
2023-05-06T10:47:57.505Z,45.73
2023-05-06T10:48:57.347Z,45.10
2023-05-06T10:49:57.306Z,44.81
2023-05-06T10:50:57.301Z,45.53
2023-05-06T10:51:57.753Z,44.53
2023-05-06T10:52:57.804Z,44.93
2023-05-06T10:53:57.269Z,46.43
2023-05-06T10:54:57.280Z,45.71
2023-05-06T10:55:57.228Z,44.38
2023-05-06T10:56:57.245Z,44.38
2023-05-06T10:57:57.247Z,43.87
2023-05-06T10:58:57.235Z,44.54
2023-05-06T10:59:57.192Z,44.02
2023-05-06T11:00:57.240Z,43.41
2023-05-06T11:01:57.211Z,41.52
2023-05-06T11:02:57.257Z,42.13
2023-05-06T11:03:57.134Z,43.55
2023-05-06T11:04:57.210Z,42.95
2023-05-06T11:05:57.163Z,42.45
2023-05-06T11:06:57.124Z,43.07
2023-05-06T11:07:57.122Z,44.46
2023-05-06T11:08:57.144Z,44.65
2023-05-06T11:09:57.127Z,44.05
2023-05-06T11:10:57.097Z,44.12
2023-05-06T11:11:57.038Z,43.03
2023-05-06T11:12:57.143Z,43.30
2023-05-06T11:13:57.044Z,41.52
2023-05-06T11:14:57.068Z,42.71
2023-05-06T11:15:57.072Z,42.59
2023-05-06T11:16:57.086Z,42.19
2023-05-06T11:17:57.134Z,42.59
2023-05-06T11:18:57.011Z,41.47
2023-05-06T11:19:56.952Z,40.46
2023-05-06T11:20:57.059Z,41.06
2023-05-06T11:21:56.987Z,41.34
2023-05-06T11:22:57.070Z,41.24
2023-05-06T11:23:56.906Z,39.35
2023-05-06T11:24:56.918Z,40.05
2023-05-06T11:25:56.953Z,41.24
2023-05-06T11:26:56.928Z,41.44
2023-05-06T11:27:56.910Z,40.84
2023-05-06T11:28:56.929Z,40.64
2023-05-06T11:29:56.861Z,41.02
2023-05-06T11:30:56.928Z,39.83
2023-05-06T11:31:56.856Z,39.33
2023-05-06T11:32:56.893Z,39.92
2023-05-06T11:33:56.844Z,40.22
2023-05-06T11:34:56.824Z,40.22
2023-05-06T11:35:56.798Z,40.12
2023-05-06T11:36:56.894Z,40.12
2023-05-06T11:37:56.785Z,39.84
2023-05-06T11:38:56.775Z,40.34
2023-05-06T11:39:56.748Z,41.16
2023-05-06T11:40:57.012Z,40.76
2023-05-06T11:41:56.984Z,40.96
2023-05-06T11:42:56.894Z,40.86
2023-05-06T11:43:56.700Z,40.36
2023-05-06T11:44:56.744Z,39.48
2023-05-06T11:45:56.946Z,40.20
2023-05-06T11:46:57.033Z,39.53
2023-05-06T11:47:56.758Z,41.24
2023-05-06T11:48:56.835Z,42.05
2023-05-06T11:49:56.741Z,42.13
2023-05-06T11:50:57.157Z,43.03
2023-05-06T11:51:56.655Z,42.31
2023-05-06T11:52:57.044Z,42.01
2023-05-06T11:53:56.896Z,40.92
2023-05-06T11:54:56.761Z,40.64
2023-05-06T11:55:56.645Z,41.85
2023-05-06T11:56:56.705Z,41.85
2023-05-06T11:57:56.607Z,41.77
2023-05-06T11:58:56.543Z,42.99
2023-05-06T11:59:56.534Z,42.69
2023-05-06T12:00:56.569Z,42.99
2023-05-06T12:01:56.540Z,43.99
2023-05-06T12:02:56.561Z,44.38
2023-05-06T12:03:56.751Z,44.38
2023-05-06T12:04:56.555Z,43.99
2023-05-06T12:05:56.491Z,44.69
2023-05-06T12:06:56.434Z,44.09
2023-05-06T12:07:56.465Z,43.39
2023-05-06T12:08:56.412Z,44.38
2023-05-06T12:09:56.521Z,44.38
2023-05-06T12:10:56.435Z,44.29
2023-05-06T12:11:56.418Z,44.79
2023-05-06T12:12:56.395Z,45.51
2023-05-06T12:13:56.401Z,45.10
2023-05-06T12:14:56.502Z,45.21
2023-05-06T12:15:56.470Z,45.01
2023-05-06T12:16:56.325Z,45.18
2023-05-06T12:17:56.369Z,44.38
2023-05-06T12:18:56.334Z,44.79
2023-05-06T12:19:56.640Z,43.49
2023-05-06T12:20:56.342Z,43.09
2023-05-06T12:21:56.296Z,43.57
2023-05-06T12:22:56.301Z,43.85
2023-05-06T12:23:56.356Z,43.95
2023-05-06T12:24:56.262Z,43.23
2023-05-06T12:25:56.299Z,42.91
2023-05-06T12:26:56.234Z,41.89
2023-05-06T12:27:57.898Z,40.10
2023-05-06T12:28:56.205Z,40.00
2023-05-06T12:29:56.198Z,42.86
2023-05-06T12:30:56.206Z,41.38
2023-05-06T12:31:56.235Z,40.86
2023-05-06T12:32:56.234Z,40.66
2023-05-06T12:33:57.550Z,40.34
2023-05-06T12:34:56.191Z,39.65
2023-05-06T12:35:56.182Z,38.06
2023-05-06T12:36:56.110Z,37.66
2023-05-06T12:37:56.146Z,39.67
2023-05-06T12:38:56.150Z,39.47
2023-05-06T12:39:58.846Z,38.37
2023-05-06T12:40:56.089Z,39.07
2023-05-06T12:41:56.109Z,38.20
2023-05-06T12:42:56.061Z,38.59
2023-05-06T12:43:56.106Z,39.18
2023-05-06T12:44:56.042Z,39.18
2023-05-06T12:45:57.859Z,38.99
2023-05-06T12:46:56.000Z,38.79
2023-05-06T12:47:56.049Z,38.97
2023-05-06T12:48:55.988Z,37.77
2023-05-06T12:49:55.982Z,38.56
2023-05-06T12:50:56.023Z,38.35
2023-05-06T12:51:55.948Z,39.15